createdAt,value
2019-03-18T00:02:21.550Z,0.100000
2019-03-18T00:04:51.917Z,0.200000
2019-03-18T00:07:22.201Z,0.200000
2019-03-18T00:09:52.578Z,0.200000
2019-03-18T00:12:22.993Z,0.200000
2019-03-18T00:15:01.280Z,0.200000
2019-03-18T00:17:32.153Z,0.200000
2019-03-18T00:20:02.519Z,0.200000
2019-03-18T00:22:32.896Z,0.200000
2019-03-18T00:25:03.170Z,0.200000
2019-03-18T00:27:33.523Z,0.200000
2019-03-18T00:30:03.899Z,0.300000
2019-03-18T00:32:34.166Z,0.300000
2019-03-18T00:35:04.400Z,0.200000
2019-03-18T00:37:34.677Z,0.200000
2019-03-18T00:40:05.031Z,0.200000
2019-03-18T00:42:35.422Z,0.200000
2019-03-18T00:45:14.886Z,0.200000
2019-03-18T00:47:46.240Z,0.300000
2019-03-18T00:50:16.635Z,0.300000
2019-03-18T00:52:46.896Z,0.400000
2019-03-18T00:55:17.266Z,0.400000
2019-03-18T00:57:47.631Z,0.200000
2019-03-18T01:00:17.989Z,0.200000
2019-03-18T01:02:49.650Z,0.300000
2019-03-18T01:05:20.478Z,0.300000
2019-03-18T01:07:50.802Z,0.200000
2019-03-18T01:10:21.283Z,0.200000
2019-03-18T01:12:51.543Z,0.200000
2019-03-18T01:15:28.044Z,0.200000
2019-03-18T01:17:59.071Z,0.200000
2019-03-18T01:20:29.417Z,0.200000
2019-03-18T01:22:59.801Z,0.300000
2019-03-18T01:25:30.337Z,0.300000
2019-03-18T01:28:00.835Z,0.200000
2019-03-18T01:30:31.182Z,0.200000
2019-03-18T01:33:01.563Z,0.300000
2019-03-18T01:35:31.983Z,0.300000
2019-03-18T01:38:02.188Z,0.100000
2019-03-18T01:40:32.548Z,0.100000
2019-03-18T01:43:02.918Z,0.200000
2019-03-18T01:45:40.701Z,0.200000
2019-03-18T01:48:11.441Z,0.400000
2019-03-18T01:50:41.911Z,0.400000
2019-03-18T01:53:12.360Z,0.300000
2019-03-18T01:55:42.788Z,0.300000
2019-03-18T01:58:13.143Z,1.000000
2019-03-18T02:00:43.484Z,1.000000
2019-03-18T02:03:13.909Z,0.200000
2019-03-18T02:05:44.516Z,0.200000
2019-03-18T02:08:14.948Z,0.300000
2019-03-18T02:10:45.365Z,0.300000
2019-03-18T02:13:15.654Z,0.300000
2019-03-18T02:15:53.284Z,0.300000
2019-03-18T02:18:24.317Z,0.300000
2019-03-18T02:20:54.574Z,0.300000
2019-03-18T02:23:24.833Z,0.600000
2019-03-18T02:25:55.214Z,0.600000
2019-03-18T02:28:25.614Z,0.200000
2019-03-18T02:30:55.948Z,0.200000
2019-03-18T02:33:26.316Z,0.200000
2019-03-18T02:35:56.795Z,0.200000
2019-03-18T02:38:27.215Z,0.200000
2019-03-18T02:40:57.742Z,0.200000
2019-03-18T02:43:28.434Z,0.400000
2019-03-18T02:46:10.135Z,0.400000
2019-03-18T02:48:41.218Z,0.300000
2019-03-18T02:51:11.582Z,0.300000
2019-03-18T02:53:42.135Z,0.200000
2019-03-18T02:56:12.499Z,0.200000
2019-03-18T02:58:42.847Z,0.300000
2019-03-18T03:01:13.199Z,0.300000
2019-03-18T03:03:43.663Z,0.400000
2019-03-18T03:06:19.095Z,0.400000
2019-03-18T03:08:49.495Z,0.200000
2019-03-18T03:11:24.928Z,0.200000
2019-03-18T03:13:55.236Z,0.200000
2019-03-18T03:16:27.564Z,0.200000
2019-03-18T03:18:58.183Z,0.200000
2019-03-18T03:21:28.698Z,0.200000
2019-03-18T03:23:59.137Z,0.200000
2019-03-18T03:26:29.453Z,0.200000
2019-03-18T03:28:59.831Z,0.200000
2019-03-18T03:31:35.219Z,0.200000
2019-03-18T03:34:12.951Z,0.100000
2019-03-18T03:36:44.662Z,0.100000
2019-03-18T03:39:15.054Z,0.200000
2019-03-18T03:41:45.493Z,0.200000
2019-03-18T03:44:15.857Z,0.300000
2019-03-18T03:46:46.223Z,0.300000
2019-03-18T03:49:16.584Z,0.200000
2019-03-18T03:51:46.820Z,0.200000
2019-03-18T03:54:17.210Z,0.200000
2019-03-18T03:56:47.557Z,0.200000
2019-03-18T03:59:17.929Z,0.200000
2019-03-18T04:01:48.284Z,0.200000
2019-03-18T04:04:18.826Z,0.200000
2019-03-18T04:06:49.430Z,0.300000
2019-03-18T04:09:19.758Z,0.300000
2019-03-18T04:11:50.091Z,0.300000
2019-03-18T04:14:20.547Z,0.300000
2019-03-18T04:17:01.631Z,0.200000
2019-03-18T04:19:32.683Z,0.200000
2019-03-18T04:22:03.134Z,0.600000
2019-03-18T04:24:33.365Z,0.600000
2019-03-18T04:27:03.736Z,0.200000
2019-03-18T04:29:34.048Z,0.200000
2019-03-18T04:32:04.437Z,0.300000
2019-03-18T04:34:34.733Z,0.300000
2019-03-18T04:37:04.980Z,1.000000
2019-03-18T04:39:35.355Z,1.000000
2019-03-18T04:42:05.668Z,0.300000
2019-03-18T04:44:36.034Z,0.300000
2019-03-18T04:47:14.403Z,0.800000
2019-03-18T04:49:45.050Z,0.800000
2019-03-18T04:52:15.382Z,0.300000
2019-03-18T04:54:45.634Z,0.300000
2019-03-18T04:57:15.979Z,0.300000
2019-03-18T04:59:46.425Z,0.300000
2019-03-18T05:02:17.026Z,0.100000
2019-03-18T05:04:47.355Z,0.100000
2019-03-18T05:07:17.654Z,0.200000
2019-03-18T05:09:48.002Z,0.200000
2019-03-18T05:12:18.343Z,0.300000
2019-03-18T05:14:48.605Z,0.300000
2019-03-18T05:17:26.641Z,0.300000
2019-03-18T05:19:57.491Z,0.300000
2019-03-18T05:22:32.873Z,0.200000
2019-03-18T05:25:03.262Z,0.200000
2019-03-18T05:27:33.659Z,0.200000
2019-03-18T05:30:03.984Z,0.200000
2019-03-18T05:32:34.311Z,0.200000
2019-03-18T05:35:04.554Z,0.200000
2019-03-18T05:37:34.896Z,0.200000
2019-03-18T05:40:05.231Z,0.200000
2019-03-18T05:42:35.617Z,0.300000
2019-03-18T05:45:05.997Z,0.300000
2019-03-18T05:47:39.416Z,0.300000
2019-03-18T05:50:10.260Z,0.300000
2019-03-18T05:52:40.582Z,0.300000
2019-03-18T05:55:11.006Z,0.300000
2019-03-18T05:57:41.351Z,0.200000
2019-03-18T06:00:11.693Z,0.200000
2019-03-18T06:02:42.050Z,0.200000
2019-03-18T06:05:12.391Z,0.200000
2019-03-18T06:07:42.833Z,0.300000
2019-03-18T06:10:13.217Z,0.300000
2019-03-18T06:12:43.452Z,0.200000
2019-03-18T06:15:13.714Z,0.200000
2019-03-18T06:17:52.371Z,0.300000
2019-03-18T06:20:23.490Z,0.300000
2019-03-18T06:22:53.739Z,0.800000
2019-03-18T06:25:24.087Z,0.800000
2019-03-18T06:27:54.736Z,0.300000
2019-03-18T06:30:25.127Z,0.300000
2019-03-18T06:32:55.444Z,0.200000
2019-03-18T06:35:25.898Z,0.200000
2019-03-18T06:37:56.235Z,0.200000
2019-03-18T06:40:26.600Z,0.200000
2019-03-18T06:42:57.044Z,0.300000
2019-03-18T06:45:27.610Z,0.300000
2019-03-18T06:48:04.710Z,0.400000
2019-03-18T06:50:35.887Z,0.400000
2019-03-18T06:53:06.288Z,0.300000
2019-03-18T06:55:36.775Z,0.300000
2019-03-18T06:58:07.060Z,0.200000
2019-03-18T07:00:37.412Z,0.200000
2019-03-18T07:03:07.663Z,0.200000
2019-03-18T07:05:38.046Z,0.200000
2019-03-18T07:08:08.486Z,0.200000
2019-03-18T07:10:38.909Z,0.200000
2019-03-18T07:13:09.268Z,0.200000
2019-03-18T07:15:39.543Z,0.200000
2019-03-18T07:18:18.103Z,0.200000
2019-03-18T07:20:49.197Z,0.300000
2019-03-18T07:23:19.534Z,0.300000
2019-03-18T07:25:49.850Z,0.200000
2019-03-18T07:28:20.176Z,0.200000
2019-03-18T07:30:50.566Z,0.300000
2019-03-18T07:33:20.823Z,0.300000
2019-03-18T07:35:51.159Z,0.200000
2019-03-18T07:38:21.711Z,0.200000
2019-03-18T07:40:52.108Z,0.200000
2019-03-18T07:43:22.671Z,0.200000
2019-03-18T07:45:52.963Z,0.400000
2019-03-18T07:48:30.821Z,0.400000
2019-03-18T07:51:01.829Z,0.300000
2019-03-18T07:53:32.167Z,0.300000
2019-03-18T07:56:02.606Z,0.300000
2019-03-18T07:58:32.993Z,0.300000
2019-03-18T08:01:03.561Z,0.200000
2019-03-18T08:03:36.449Z,0.200000
2019-03-18T08:06:07.116Z,0.200000
2019-03-18T08:08:37.401Z,0.200000
2019-03-18T08:11:07.771Z,0.100000
2019-03-18T08:13:38.091Z,0.100000
2019-03-18T08:16:08.515Z,0.300000
2019-03-18T08:18:43.453Z,0.300000
2019-03-18T08:21:14.053Z,0.500000
2019-03-18T08:23:44.383Z,0.500000
2019-03-18T08:26:14.837Z,0.100000
2019-03-18T08:28:45.167Z,0.100000
2019-03-18T08:31:15.505Z,0.200000
2019-03-18T08:33:45.756Z,0.200000
2019-03-18T08:36:16.208Z,0.200000
2019-03-18T08:38:46.510Z,0.200000
2019-03-18T08:41:16.892Z,0.100000
2019-03-18T08:43:47.299Z,0.100000
2019-03-18T08:46:17.727Z,0.900000
2019-03-18T08:48:55.812Z,0.900000
2019-03-18T08:51:26.342Z,0.100000
2019-03-18T08:54:01.773Z,0.100000
2019-03-18T08:56:32.088Z,0.100000
2019-03-18T08:59:02.431Z,0.100000
2019-03-18T09:01:32.793Z,9.500000
2019-03-18T09:04:03.127Z,9.500000
2019-03-18T09:06:33.492Z,0.100000
2019-03-18T09:09:03.837Z,0.100000
2019-03-18T09:11:34.230Z,0.100000
2019-03-18T09:14:04.550Z,0.100000
2019-03-18T09:16:34.790Z,0.200000
2019-03-18T09:19:08.918Z,0.200000
2019-03-18T09:21:39.865Z,0.700000
2019-03-18T09:24:10.202Z,0.700000
2019-03-18T09:26:40.551Z,0.300000
2019-03-18T09:29:10.937Z,0.300000
2019-03-18T09:31:41.317Z,0.800000
2019-03-18T09:34:11.636Z,0.800000
2019-03-18T09:36:41.992Z,0.100000
2019-03-18T09:39:12.431Z,0.100000
2019-03-18T09:41:42.902Z,0.500000
2019-03-18T09:44:13.240Z,0.500000
2019-03-18T09:46:43.512Z,0.400000
2019-03-18T09:49:21.517Z,0.400000
2019-03-18T09:51:52.562Z,0.500000
2019-03-18T09:54:22.916Z,0.500000
2019-03-18T09:56:53.279Z,0.100000
2019-03-18T09:59:23.591Z,0.100000
2019-03-18T10:01:53.911Z,0.200000
2019-03-18T10:04:24.251Z,0.200000
2019-03-18T10:06:54.629Z,0.200000
2019-03-18T10:09:24.942Z,0.200000
2019-03-18T10:11:55.312Z,0.100000
2019-03-18T10:14:25.685Z,0.100000
2019-03-18T10:16:56.024Z,0.100000
2019-03-18T10:19:33.563Z,0.100000
2019-03-18T10:22:04.470Z,0.100000
2019-03-18T10:24:34.726Z,0.100000
2019-03-18T10:27:05.127Z,0.300000
2019-03-18T10:29:35.499Z,0.300000
2019-03-18T10:32:05.714Z,0.200000
2019-03-18T10:34:36.186Z,0.200000
2019-03-18T10:37:06.549Z,0.700000
2019-03-18T10:39:36.796Z,0.700000
2019-03-18T10:42:07.059Z,0.500000
2019-03-18T10:44:37.341Z,0.500000
2019-03-18T10:47:07.726Z,1.500000
2019-03-18T10:49:46.166Z,1.500000
2019-03-18T10:52:17.034Z,1.500000
2019-03-18T10:54:47.407Z,1.500000
2019-03-18T10:57:17.848Z,0.800000
2019-03-18T10:59:48.165Z,0.800000
2019-03-18T11:02:18.599Z,5.500000
2019-03-18T11:04:49.054Z,5.500000
2019-03-18T11:07:19.354Z,0.200000
2019-03-18T11:09:49.619Z,0.200000
2019-03-18T11:12:19.981Z,0.800000
2019-03-18T11:14:50.356Z,0.800000
2019-03-18T11:17:20.719Z,0.100000
2019-03-18T11:19:58.318Z,0.100000
2019-03-18T11:22:34.476Z,0.600000
2019-03-18T11:25:04.878Z,0.000000
2019-03-18T11:27:35.202Z,0.000000
2019-03-18T11:30:05.559Z,0.100000
2019-03-18T11:32:35.904Z,0.100000
2019-03-18T11:35:06.335Z,15.800000
2019-03-18T11:37:36.752Z,15.800000
2019-03-18T11:40:07.122Z,0.100000
2019-03-18T11:42:37.436Z,0.100000
2019-03-18T11:45:08.126Z,0.200000
2019-03-18T11:47:38.727Z,0.200000
2019-03-18T11:50:11.492Z,0.100000
2019-03-18T11:52:42.078Z,0.100000
2019-03-18T11:55:12.417Z,0.100000
2019-03-18T11:57:42.873Z,0.100000
2019-03-18T12:00:13.372Z,0.100000
2019-03-18T12:02:43.766Z,0.100000
2019-03-18T12:05:14.283Z,0.100000
2019-03-18T12:07:44.717Z,0.100000
2019-03-18T12:10:15.119Z,0.100000
2019-03-18T12:12:45.436Z,0.100000
2019-03-18T12:15:15.771Z,0.100000
2019-03-18T12:17:46.180Z,0.100000
2019-03-18T12:20:24.306Z,0.100000
2019-03-18T12:22:55.749Z,0.100000
2019-03-18T12:25:26.167Z,0.100000
2019-03-18T12:27:56.611Z,0.100000
2019-03-18T12:30:27.002Z,0.100000
2019-03-18T12:32:57.377Z,0.100000
2019-03-18T12:35:27.866Z,0.100000
2019-03-18T12:37:58.225Z,0.100000
2019-03-18T12:40:28.704Z,0.100000
2019-03-18T12:42:59.125Z,0.100000
2019-03-18T12:45:29.592Z,0.100000
2019-03-18T12:47:59.838Z,0.100000
2019-03-18T12:50:49.206Z,0.600000
2019-03-18T12:53:25.220Z,0.600000
2019-03-18T12:55:55.547Z,0.200000
2019-03-18T12:58:26.019Z,0.200000
2019-03-18T13:00:56.457Z,0.500000
2019-03-18T13:03:26.840Z,0.500000
2019-03-18T13:05:57.187Z,0.100000
2019-03-18T13:08:27.718Z,0.100000
2019-03-18T13:10:58.078Z,0.100000
2019-03-18T13:13:28.509Z,0.100000
2019-03-18T13:15:58.795Z,0.600000
2019-03-18T13:18:29.211Z,0.600000
2019-03-18T13:21:07.785Z,0.100000
2019-03-18T13:23:38.758Z,0.100000
2019-03-18T13:26:09.272Z,0.100000
2019-03-18T13:28:39.641Z,0.100000
2019-03-18T13:31:10.033Z,0.100000
2019-03-18T13:33:41.666Z,0.100000
2019-03-18T13:36:12.193Z,0.100000
2019-03-18T13:38:42.554Z,0.100000
2019-03-18T13:41:12.912Z,0.100000
2019-03-18T13:43:43.320Z,0.100000
2019-03-18T13:46:13.680Z,0.100000
2019-03-18T13:48:44.051Z,0.100000
2019-03-18T13:51:20.849Z,21.500000
2019-03-18T13:53:51.651Z,21.500000
2019-03-18T13:56:22.092Z,0.400000
2019-03-18T13:58:52.593Z,0.400000
2019-03-18T14:01:23.025Z,0.100000
2019-03-18T14:03:53.395Z,0.100000
2019-03-18T14:06:23.819Z,0.100000
2019-03-18T14:08:54.299Z,0.100000
2019-03-18T14:11:24.718Z,0.100000
2019-03-18T14:13:55.070Z,0.100000
2019-03-18T14:16:25.483Z,0.100000
2019-03-18T14:19:00.960Z,0.100000
2019-03-18T14:21:33.473Z,0.100000
2019-03-18T14:24:04.092Z,0.100000
2019-03-18T14:26:34.560Z,5.300000
2019-03-18T14:29:04.953Z,5.300000
2019-03-18T14:31:35.421Z,0.100000
2019-03-18T14:34:05.771Z,0.100000
2019-03-18T14:36:36.183Z,0.100000
2019-03-18T14:39:06.498Z,0.100000
2019-03-18T14:41:36.822Z,0.100000
2019-03-18T14:44:07.168Z,0.100000
2019-03-18T14:46:37.617Z,0.100000
2019-03-18T14:49:07.966Z,0.100000
2019-03-18T14:51:46.099Z,0.900000
2019-03-18T14:54:16.686Z,0.900000
2019-03-18T14:56:46.977Z,0.100000
2019-03-18T14:59:17.367Z,0.100000
2019-03-18T15:01:47.785Z,0.100000
2019-03-18T15:04:18.085Z,0.100000
2019-03-18T15:06:53.518Z,0.100000
2019-03-18T15:09:25.959Z,0.100000
2019-03-18T15:12:01.383Z,0.100000
2019-03-18T15:14:36.828Z,2.000000
2019-03-18T15:17:07.264Z,2.000000
2019-03-18T15:19:37.736Z,0.100000
2019-03-18T15:22:08.003Z,0.100000
2019-03-18T15:24:38.445Z,7.600000
2019-03-18T15:27:08.846Z,7.600000
2019-03-18T15:29:39.494Z,4.900000
2019-03-18T15:32:12.077Z,4.900000
2019-03-18T15:34:42.597Z,12.000000
2019-03-18T15:37:13.017Z,12.000000
2019-03-18T15:39:43.338Z,12.300000
2019-03-18T15:42:13.697Z,12.300000
2019-03-18T15:44:44.115Z,8.700000
2019-03-18T15:47:14.478Z,8.700000
2019-03-18T15:49:44.769Z,8.300000
2019-03-18T15:52:15.105Z,8.300000
2019-03-18T15:54:53.912Z,0.100000
2019-03-18T15:57:29.586Z,0.100000
2019-03-18T16:00:00.422Z,0.200000
2019-03-18T16:02:35.846Z,0.200000
2019-03-18T16:05:06.160Z,0.100000
2019-03-18T16:07:36.457Z,0.100000
2019-03-18T16:10:06.687Z,0.100000
2019-03-18T16:12:38.210Z,0.100000
2019-03-18T16:15:08.574Z,0.100000
2019-03-18T16:17:41.401Z,0.100000
2019-03-18T16:20:12.321Z,0.100000
2019-03-18T16:22:47.691Z,0.100000
2019-03-18T16:25:17.918Z,0.100000
2019-03-18T16:27:48.327Z,0.100000
2019-03-18T16:30:18.912Z,0.100000
2019-03-18T16:32:49.203Z,0.100000
2019-03-18T16:35:19.625Z,0.100000
2019-03-18T16:37:50.085Z,0.100000
2019-03-18T16:40:20.477Z,0.200000
2019-03-18T16:42:50.933Z,0.200000
2019-03-18T16:45:21.300Z,0.200000
2019-03-18T16:47:51.673Z,0.200000
2019-03-18T16:50:22.064Z,0.100000
2019-03-18T16:52:52.543Z,0.100000
2019-03-18T16:55:22.897Z,0.100000
2019-03-18T16:57:53.272Z,0.100000
2019-03-18T17:00:23.627Z,0.100000
2019-03-18T17:02:54.050Z,0.100000
2019-03-18T17:05:24.500Z,0.200000
2019-03-18T17:07:54.950Z,0.200000
2019-03-18T17:10:25.330Z,0.100000
2019-03-18T17:12:55.689Z,0.100000
2019-03-18T17:15:31.014Z,0.100000
2019-03-18T17:18:02.369Z,0.100000
2019-03-18T17:20:32.729Z,0.100000
2019-03-18T17:23:08.062Z,0.100000
2019-03-18T17:25:38.440Z,0.200000
2019-03-18T17:28:08.814Z,0.200000
2019-03-18T17:30:44.194Z,0.100000
2019-03-18T17:33:14.497Z,0.100000
2019-03-18T17:35:44.896Z,0.300000
2019-03-18T17:38:15.189Z,0.300000
2019-03-18T17:40:45.561Z,0.100000
2019-03-18T17:43:15.938Z,0.100000
2019-03-18T17:45:46.286Z,0.200000
2019-03-18T17:48:16.660Z,0.200000
2019-03-18T17:50:47.030Z,0.100000
2019-03-18T17:53:17.415Z,0.100000
2019-03-18T17:55:47.971Z,0.100000
2019-03-18T17:58:18.415Z,0.100000
2019-03-18T18:00:48.774Z,0.100000
2019-03-18T18:03:19.054Z,0.100000
2019-03-18T18:05:51.485Z,0.200000
2019-03-18T18:08:21.982Z,0.200000
2019-03-18T18:10:52.310Z,0.100000
2019-03-18T18:13:22.646Z,0.100000
2019-03-18T18:15:53.029Z,0.100000
2019-03-18T18:18:23.446Z,0.100000
2019-03-18T18:20:53.796Z,0.200000
2019-03-18T18:23:24.104Z,0.200000
2019-03-18T18:25:54.493Z,0.100000
2019-03-18T18:28:24.932Z,0.100000
2019-03-18T18:30:55.319Z,0.200000
2019-03-18T18:33:25.730Z,7.000000
2019-03-18T18:35:56.110Z,7.000000
2019-03-18T18:38:26.435Z,0.100000
2019-03-18T18:40:56.976Z,0.100000
2019-03-18T18:43:27.427Z,0.200000
2019-03-18T18:45:57.928Z,0.200000
2019-03-18T18:48:28.277Z,0.100000
2019-03-18T18:50:58.595Z,0.100000
2019-03-18T18:53:28.835Z,0.200000
2019-03-18T18:55:59.147Z,0.200000
2019-03-18T18:58:29.574Z,0.400000
2019-03-18T19:00:59.974Z,0.400000
2019-03-18T19:03:30.320Z,0.200000
2019-03-18T19:06:00.747Z,0.200000
2019-03-18T19:08:31.163Z,0.300000
2019-03-18T19:11:01.662Z,0.300000
2019-03-18T19:13:31.993Z,0.100000
2019-03-18T19:16:02.415Z,0.100000
2019-03-18T19:18:37.778Z,0.100000
2019-03-18T19:21:08.706Z,0.100000
2019-03-18T19:23:39.301Z,0.100000
2019-03-18T19:26:09.734Z,0.100000
2019-03-18T19:28:40.050Z,0.300000
2019-03-18T19:31:10.365Z,0.300000
2019-03-18T19:33:40.623Z,0.200000
2019-03-18T19:36:11.003Z,0.200000
2019-03-18T19:38:41.345Z,0.300000
2019-03-18T19:41:11.750Z,0.300000
2019-03-18T19:43:42.135Z,0.200000
2019-03-18T19:46:12.463Z,0.200000
2019-03-18T19:48:42.797Z,0.300000
2019-03-18T19:51:13.129Z,0.300000
2019-03-18T19:53:49.099Z,0.100000
2019-03-18T19:56:19.867Z,0.100000
2019-03-18T19:58:50.154Z,0.200000
2019-03-18T20:01:20.656Z,0.200000
2019-03-18T20:03:51.077Z,0.200000
2019-03-18T20:06:21.333Z,0.200000
2019-03-18T20:08:51.645Z,0.200000
2019-03-18T20:11:21.970Z,0.200000
2019-03-18T20:13:52.250Z,0.300000
2019-03-18T20:16:22.719Z,0.300000
2019-03-18T20:18:53.859Z,0.300000
2019-03-18T20:21:24.271Z,0.300000
2019-03-18T20:24:00.686Z,0.200000
2019-03-18T20:26:31.849Z,0.200000
2019-03-18T20:29:02.216Z,0.200000
2019-03-18T20:31:32.697Z,0.200000
2019-03-18T20:34:02.917Z,0.100000
2019-03-18T20:36:33.288Z,0.100000
2019-03-18T20:39:03.638Z,0.200000
2019-03-18T20:41:34.064Z,0.200000
2019-03-18T20:44:04.367Z,0.200000
2019-03-18T20:46:34.663Z,0.200000
2019-03-18T20:49:05.040Z,0.200000
2019-03-18T20:51:35.547Z,0.200000
2019-03-18T20:54:12.042Z,0.200000
2019-03-18T20:56:42.780Z,0.200000
2019-03-18T20:59:13.045Z,0.300000
2019-03-18T21:01:43.437Z,0.300000
2019-03-18T21:04:13.720Z,0.200000
2019-03-18T21:06:44.131Z,0.200000
2019-03-18T21:09:19.614Z,0.200000
2019-03-18T21:11:49.884Z,0.200000
2019-03-18T21:14:20.294Z,0.200000
2019-03-18T21:16:55.728Z,0.200000
2019-03-18T21:19:25.958Z,0.200000
2019-03-18T21:21:56.521Z,0.200000
2019-03-18T21:24:26.831Z,0.300000
2019-03-18T21:26:57.097Z,0.300000
2019-03-18T21:29:27.378Z,0.200000
2019-03-18T21:31:57.772Z,0.200000
2019-03-18T21:34:28.249Z,0.200000
2019-03-18T21:36:58.710Z,0.200000
2019-03-18T21:39:29.330Z,0.200000
2019-03-18T21:41:59.694Z,0.200000
2019-03-18T21:44:30.002Z,0.300000
2019-03-18T21:47:00.443Z,0.300000
2019-03-18T21:49:30.979Z,0.200000
2019-03-18T21:52:01.490Z,0.200000
2019-03-18T21:54:34.403Z,0.200000
2019-03-18T21:57:04.822Z,0.200000
2019-03-18T21:59:35.204Z,0.200000
2019-03-18T22:02:05.574Z,0.200000
2019-03-18T22:04:36.157Z,0.400000
2019-03-18T22:07:06.550Z,0.400000
2019-03-18T22:09:36.999Z,0.100000
2019-03-18T22:12:07.432Z,0.100000
2019-03-18T22:14:38.071Z,0.300000
2019-03-18T22:17:08.506Z,0.300000
2019-03-18T22:19:38.868Z,0.200000
2019-03-18T22:22:09.220Z,0.200000
2019-03-18T22:24:45.164Z,0.200000
2019-03-18T22:27:16.221Z,0.200000
2019-03-18T22:29:46.591Z,0.200000
2019-03-18T22:32:16.844Z,0.400000
2019-03-18T22:34:47.358Z,0.400000
2019-03-18T22:37:17.695Z,0.300000
2019-03-18T22:39:48.119Z,0.300000
2019-03-18T22:42:18.477Z,0.200000
2019-03-18T22:44:48.830Z,0.200000
2019-03-18T22:47:19.177Z,0.300000
2019-03-18T22:49:49.450Z,0.300000
2019-03-18T22:52:19.981Z,0.300000
2019-03-18T22:54:56.000Z,0.300000
2019-03-18T22:57:26.685Z,0.300000
2019-03-18T22:59:57.048Z,0.300000
2019-03-18T23:02:27.306Z,0.300000
2019-03-18T23:04:57.676Z,0.300000
2019-03-18T23:07:28.016Z,0.100000
2019-03-18T23:09:58.405Z,0.100000
2019-03-18T23:12:28.733Z,0.200000
2019-03-18T23:14:59.279Z,0.200000
2019-03-18T23:17:29.578Z,0.200000
2019-03-18T23:19:59.835Z,0.200000
2019-03-18T23:22:35.274Z,0.500000
2019-03-18T23:25:07.568Z,0.500000
2019-03-18T23:27:38.548Z,0.200000
2019-03-18T23:30:08.938Z,0.200000
2019-03-18T23:32:39.262Z,0.200000
2019-03-18T23:35:09.529Z,0.200000
2019-03-18T23:37:39.915Z,0.200000
2019-03-18T23:40:10.344Z,0.200000
2019-03-18T23:42:40.758Z,1.200000
2019-03-18T23:45:11.117Z,1.200000
2019-03-18T23:47:41.475Z,0.300000
2019-03-18T23:50:11.702Z,0.300000
2019-03-18T23:52:42.057Z,0.300000
2019-03-18T23:55:19.180Z,0.300000
2019-03-18T23:57:50.318Z,0.300000
